createdAt,value
2022-08-27T00:01:20.994Z,14.32
2022-08-27T00:03:47.658Z,15.65
2022-08-27T00:06:16.507Z,18.20
2022-08-27T00:08:45.839Z,28.15
2022-08-27T00:11:13.259Z,19.80
2022-08-27T00:13:40.139Z,19.42
2022-08-27T00:16:09.877Z,23.20
2022-08-27T00:18:38.188Z,24.25
2022-08-27T00:21:05.118Z,21.77
2022-08-27T00:23:34.574Z,19.20
2022-08-27T00:26:01.341Z,18.85
2022-08-27T00:28:29.005Z,20.73
2022-08-27T00:30:56.419Z,25.67
2022-08-27T00:33:24.471Z,29.63
2022-08-27T00:35:51.719Z,25.42
2022-08-27T00:38:20.490Z,31.02
2022-08-27T00:40:47.140Z,34.25
2022-08-27T00:43:14.274Z,24.25
2022-08-27T00:45:45.876Z,25.83
2022-08-27T00:48:18.341Z,26.80
2022-08-27T00:50:52.055Z,29.40
2022-08-27T00:53:23.224Z,31.13
2022-08-27T00:55:55.184Z,31.70
2022-08-27T00:58:31.405Z,25.45
2022-08-27T01:01:00.068Z,37.97
2022-08-27T01:03:27.712Z,29.33
2022-08-27T01:05:58.622Z,27.48
2022-08-27T01:08:28.258Z,25.67
2022-08-27T01:10:58.495Z,28.67
2022-08-27T01:13:53.465Z,26.67
2022-08-27T01:16:23.883Z,27.10
2022-08-27T01:18:51.419Z,28.85
2022-08-27T01:21:53.918Z,28.17
2022-08-27T01:24:34.610Z,23.73
2022-08-27T01:27:03.116Z,28.70
2022-08-27T01:29:30.884Z,36.92
2022-08-27T01:32:10.074Z,28.98
2022-08-27T01:34:38.149Z,32.47
2022-08-27T01:37:06.627Z,31.58
2022-08-27T01:39:39.507Z,27.13
2022-08-27T01:42:11.782Z,36.22
2022-08-27T01:44:47.851Z,25.15
2022-08-27T01:47:15.111Z,46.00
2022-08-27T01:49:41.745Z,41.58
2022-08-27T01:52:08.866Z,34.20
2022-08-27T01:54:35.734Z,35.25
2022-08-27T01:57:02.322Z,43.40
2022-08-27T01:59:33.627Z,37.10
2022-08-27T02:02:07.505Z,43.15
2022-08-27T02:04:34.225Z,32.60
2022-08-27T02:07:00.807Z,39.83
2022-08-27T02:09:27.479Z,36.90
2022-08-27T02:11:54.187Z,40.15
2022-08-27T02:14:20.759Z,38.80
2022-08-27T02:16:52.717Z,40.28
2022-08-27T02:19:20.461Z,38.35
2022-08-27T02:21:47.574Z,50.88
2022-08-27T02:24:14.231Z,48.05
2022-08-27T02:26:41.623Z,39.17
2022-08-27T02:29:08.713Z,41.58
2022-08-27T02:31:35.459Z,38.42
2022-08-27T02:34:02.062Z,45.90
2022-08-27T02:36:28.711Z,48.28
2022-08-27T02:38:56.006Z,53.08
2022-08-27T02:41:23.269Z,49.97
2022-08-27T02:43:50.061Z,45.05
2022-08-27T02:46:17.073Z,42.35
2022-08-27T02:48:44.966Z,48.72
2022-08-27T02:51:11.620Z,40.92
2022-08-27T02:53:38.303Z,39.00
2022-08-27T02:56:06.411Z,49.70
2022-08-27T02:58:33.772Z,42.83
2022-08-27T03:01:01.890Z,43.30
2022-08-27T03:03:31.987Z,39.38
2022-08-27T03:05:59.300Z,44.78
2022-08-27T03:08:27.458Z,45.17
2022-08-27T03:10:57.380Z,34.50
2022-08-27T03:13:26.148Z,46.35
2022-08-27T03:15:53.693Z,43.92
2022-08-27T03:18:21.937Z,45.88
2022-08-27T03:20:56.839Z,37.65
2022-08-27T03:23:26.438Z,52.42
2022-08-27T03:25:56.634Z,49.60
2022-08-27T03:28:26.024Z,45.83
2022-08-27T03:30:58.571Z,41.40
2022-08-27T03:33:26.279Z,40.03
2022-08-27T03:35:53.066Z,41.28
2022-08-27T03:38:20.453Z,43.67
2022-08-27T03:40:47.615Z,45.92
2022-08-27T03:43:16.568Z,46.97
2022-08-27T03:46:00.637Z,38.50
2022-08-27T03:50:56.114Z,37.38
2022-08-27T03:53:22.727Z,39.20
2022-08-27T03:55:49.478Z,62.47
2022-08-27T03:58:16.951Z,43.00
2022-08-27T04:00:43.892Z,45.08
2022-08-27T04:03:13.453Z,55.58
2022-08-27T04:05:40.862Z,49.42
2022-08-27T04:08:10.080Z,50.33
2022-08-27T04:10:40.590Z,38.95
2022-08-27T04:13:07.215Z,39.95
2022-08-27T04:15:34.341Z,41.30
2022-08-27T04:18:06.103Z,38.33
2022-08-27T04:20:35.551Z,38.72
2022-08-27T04:23:02.764Z,45.72
2022-08-27T04:25:29.537Z,60.65
2022-08-27T04:27:56.190Z,40.42
2022-08-27T04:30:22.745Z,33.30
2022-08-27T04:32:49.357Z,37.55
2022-08-27T04:35:16.138Z,39.83
2022-08-27T04:37:43.251Z,41.03
2022-08-27T04:40:10.466Z,35.80
2022-08-27T04:42:37.179Z,37.28
2022-08-27T04:45:04.649Z,39.08
2022-08-27T04:47:31.304Z,34.80
2022-08-27T04:49:57.926Z,35.47
2022-08-27T04:52:25.127Z,29.48
2022-08-27T04:54:52.030Z,28.13
2022-08-27T04:57:18.883Z,33.13
2022-08-27T04:59:45.602Z,34.95
2022-08-27T05:02:12.845Z,25.40
2022-08-27T05:04:40.655Z,32.38
2022-08-27T05:07:09.007Z,34.60
2022-08-27T05:09:35.807Z,31.08
2022-08-27T05:12:02.662Z,36.42
2022-08-27T05:14:30.341Z,26.00
2022-08-27T05:16:58.863Z,27.38
2022-08-27T05:19:25.831Z,32.65
2022-08-27T05:21:53.873Z,24.38
2022-08-27T05:24:21.808Z,24.98
2022-08-27T05:26:49.902Z,30.65
2022-08-27T05:29:17.155Z,26.90
2022-08-27T05:31:43.830Z,25.77
2022-08-27T05:34:22.049Z,30.33
2022-08-27T05:36:53.223Z,24.23
2022-08-27T05:39:19.780Z,30.92
2022-08-27T05:41:46.348Z,23.05
2022-08-27T05:44:39.637Z,27.45
2022-08-27T05:46:59.858Z,23.73
2022-08-27T05:49:26.496Z,29.90
2022-08-27T05:51:53.120Z,26.60
2022-08-27T05:54:20.028Z,25.60
2022-08-27T05:56:49.430Z,21.70
2022-08-27T05:59:35.068Z,22.13
2022-08-27T06:02:02.321Z,26.42
2022-08-27T06:04:28.879Z,25.17
2022-08-27T06:06:55.457Z,24.23
2022-08-27T06:09:24.666Z,20.45
2022-08-27T06:11:54.302Z,23.80
2022-08-27T06:14:21.087Z,28.40
2022-08-27T06:16:48.724Z,25.10
2022-08-27T06:19:15.914Z,25.98
2022-08-27T06:21:42.808Z,27.05
2022-08-27T06:24:12.210Z,20.85
2022-08-27T06:26:40.513Z,22.08
2022-08-27T06:29:08.085Z,24.15
2022-08-27T06:31:35.731Z,17.65
2022-08-27T06:34:07.600Z,21.08
2022-08-27T06:36:37.210Z,26.77
2022-08-27T06:39:04.831Z,21.45
2022-08-27T06:41:31.607Z,17.88
2022-08-27T06:43:58.516Z,22.90
2022-08-27T06:46:27.625Z,19.88
2022-08-27T06:48:56.194Z,20.52
2022-08-27T06:51:28.502Z,34.53
2022-08-27T06:53:57.632Z,18.52
2022-08-27T06:56:24.783Z,22.52
2022-08-27T06:58:55.839Z,21.67
2022-08-27T07:01:30.370Z,18.15
2022-08-27T07:03:59.033Z,23.73
2022-08-27T07:06:29.110Z,21.95
2022-08-27T07:08:57.204Z,24.92
2022-08-27T07:11:24.284Z,22.85
2022-08-27T07:13:51.381Z,23.38
2022-08-27T07:16:23.227Z,19.40
2022-08-27T07:18:51.754Z,22.33
2022-08-27T07:21:21.761Z,28.08
2022-08-27T07:23:50.775Z,19.83
2022-08-27T07:26:19.449Z,16.70
2022-08-27T07:28:47.718Z,22.30
2022-08-27T07:31:19.069Z,17.90
2022-08-27T07:33:52.297Z,27.38
2022-08-27T07:36:23.145Z,17.50
2022-08-27T07:38:56.606Z,32.78
2022-08-27T07:41:31.139Z,23.70
2022-08-27T07:44:19.831Z,24.13
2022-08-27T07:46:48.784Z,18.52
2022-08-27T07:49:17.463Z,22.85
2022-08-27T07:51:45.172Z,22.83
2022-08-27T07:54:12.061Z,23.95
2022-08-27T07:56:38.739Z,19.48
2022-08-27T07:59:05.346Z,28.40
2022-08-27T08:01:32.096Z,26.40
2022-08-27T08:03:59.088Z,22.42
2022-08-27T08:06:26.048Z,26.33
2022-08-27T08:08:52.767Z,23.58
2022-08-27T08:11:19.979Z,26.25
2022-08-27T08:13:47.382Z,22.50
2022-08-27T08:16:14.862Z,26.05
2022-08-27T08:18:41.425Z,20.45
2022-08-27T08:21:11.159Z,31.63
2022-08-27T08:23:38.549Z,23.50
2022-08-27T08:26:06.226Z,21.55
2022-08-27T08:28:32.855Z,30.73
2022-08-27T08:30:59.776Z,20.90
2022-08-27T08:33:27.772Z,28.42
2022-08-27T08:35:54.702Z,24.75
2022-08-27T08:38:21.396Z,27.77
2022-08-27T08:40:53.333Z,29.58
2022-08-27T08:43:28.226Z,23.75
2022-08-27T08:45:58.436Z,24.40
2022-08-27T08:48:28.196Z,25.50
2022-08-27T08:51:08.881Z,19.50
2022-08-27T08:53:57.572Z,26.98
2022-08-27T08:56:50.811Z,19.50
2022-08-27T08:59:38.143Z,23.60
2022-08-27T09:02:12.655Z,24.15
2022-08-27T09:04:41.289Z,19.20
2022-08-27T09:07:31.391Z,27.35
2022-08-27T09:10:25.791Z,39.53
2022-08-27T09:12:58.968Z,18.77
2022-08-27T09:15:31.260Z,20.17
2022-08-27T09:18:11.117Z,20.92
2022-08-27T09:20:44.783Z,22.73
2022-08-27T09:23:25.687Z,27.35
2022-08-27T09:25:52.401Z,21.23
2022-08-27T09:28:43.839Z,22.88
2022-08-27T09:31:15.112Z,19.50
2022-08-27T09:33:56.089Z,22.38
2022-08-27T09:36:24.526Z,19.40
2022-08-27T09:38:58.076Z,22.05
2022-08-27T09:41:31.954Z,19.70
2022-08-27T09:46:35.996Z,27.83
2022-08-27T09:49:14.424Z,21.50
2022-08-27T09:51:44.018Z,20.67
2022-08-27T09:54:12.069Z,23.45
2022-08-27T09:56:47.145Z,17.67
2022-08-27T10:02:04.443Z,20.27
2022-08-27T10:04:50.709Z,23.15
2022-08-27T10:07:35.874Z,21.63
2022-08-27T10:10:11.052Z,25.38
2022-08-27T10:12:49.923Z,22.73
2022-08-27T10:15:16.988Z,28.90
2022-08-27T10:17:57.234Z,26.00
2022-08-27T10:20:47.299Z,25.73
2022-08-27T10:23:34.019Z,18.77
2022-08-27T10:26:24.384Z,21.35
2022-08-27T10:29:23.711Z,23.25
2022-08-27T10:32:35.288Z,24.20
2022-08-27T10:35:12.374Z,20.63
2022-08-27T10:37:54.325Z,20.20
2022-08-27T10:40:32.256Z,32.75
2022-08-27T10:43:13.774Z,20.77
2022-08-27T10:45:52.639Z,29.25
2022-08-27T10:48:29.171Z,26.55
2022-08-27T10:51:16.278Z,20.25
2022-08-27T10:54:05.936Z,19.45
2022-08-27T10:56:43.453Z,19.88
2022-08-27T10:59:31.374Z,19.90
2022-08-27T11:02:19.448Z,20.02
2022-08-27T11:04:52.941Z,16.80
2022-08-27T11:07:27.470Z,14.65
2022-08-27T11:10:07.418Z,23.15
2022-08-27T11:12:40.015Z,20.85
2022-08-27T11:15:30.183Z,16.08
2022-08-27T11:18:08.126Z,24.25
2022-08-27T11:20:37.265Z,24.77
2022-08-27T11:23:08.508Z,18.95
2022-08-27T11:25:40.932Z,16.23
2022-08-27T11:28:09.851Z,18.65
2022-08-27T11:30:45.346Z,23.58
2022-08-27T11:33:27.478Z,19.33
2022-08-27T11:35:54.010Z,15.82
2022-08-27T11:38:39.030Z,25.75
2022-08-27T11:43:45.597Z,22.63
2022-08-27T11:46:12.454Z,20.55
2022-08-27T11:48:42.774Z,18.50
2022-08-27T11:51:32.951Z,19.40
2022-08-27T11:54:02.376Z,27.88
2022-08-27T11:56:28.882Z,25.08
2022-08-27T11:58:56.720Z,22.13
2022-08-27T12:01:31.646Z,21.05
2022-08-27T12:04:06.613Z,23.10
2022-08-27T12:06:45.661Z,30.90
2022-08-27T12:09:23.964Z,17.67
2022-08-27T12:12:02.807Z,20.48
2022-08-27T12:14:32.859Z,18.95
2022-08-27T12:17:13.855Z,17.35
2022-08-27T12:20:08.631Z,12.27
2022-08-27T12:23:34.838Z,18.20
2022-08-27T12:26:25.469Z,26.17
2022-08-27T12:29:16.546Z,16.38
2022-08-27T12:31:46.477Z,19.63
2022-08-27T12:34:20.088Z,27.48
2022-08-27T12:36:53.427Z,22.55
2022-08-27T12:39:26.635Z,14.93
2022-08-27T12:41:55.810Z,22.17
2022-08-27T12:44:33.002Z,20.40
2022-08-27T12:47:04.324Z,20.27
2022-08-27T12:49:39.419Z,23.45
2022-08-27T12:53:03.682Z,18.88
2022-08-27T12:56:05.452Z,14.98
2022-08-27T12:58:52.117Z,17.80
2022-08-27T13:01:22.072Z,16.23
2022-08-27T13:03:54.225Z,24.20
2022-08-27T13:06:22.451Z,16.80
2022-08-27T13:08:54.704Z,16.80
2022-08-27T13:11:27.796Z,20.25
2022-08-27T13:14:10.228Z,22.10
2022-08-27T13:16:39.895Z,16.35
2022-08-27T13:19:08.188Z,19.02
2022-08-27T13:21:34.923Z,26.67
2022-08-27T13:24:06.714Z,24.98
2022-08-27T13:26:37.435Z,25.67
2022-08-27T13:29:06.509Z,20.92
2022-08-27T13:31:34.494Z,16.60
2022-08-27T13:34:05.416Z,21.63
2022-08-27T13:36:36.244Z,23.85
2022-08-27T13:39:06.164Z,24.13
2022-08-27T13:41:37.642Z,22.02
2022-08-27T13:44:14.520Z,18.83
2022-08-27T13:46:48.693Z,29.35
2022-08-27T13:49:22.561Z,19.77
2022-08-27T13:51:57.432Z,22.52
2022-08-27T13:54:24.534Z,23.65
2022-08-27T13:56:55.149Z,24.00
2022-08-27T13:59:21.934Z,25.42
2022-08-27T14:02:09.792Z,24.13
2022-08-27T14:04:43.281Z,24.08
2022-08-27T14:07:21.035Z,20.70
2022-08-27T14:09:54.711Z,20.38
2022-08-27T14:12:38.333Z,26.52
2022-08-27T14:15:20.076Z,21.67
2022-08-27T14:17:47.595Z,21.55
2022-08-27T14:20:16.526Z,22.38
2022-08-27T14:22:44.412Z,19.70
2022-08-27T14:25:12.183Z,22.48
2022-08-27T14:27:40.706Z,23.63
2022-08-27T14:30:19.299Z,19.75
2022-08-27T14:32:46.107Z,19.58
2022-08-27T14:35:12.743Z,17.15
2022-08-27T14:37:41.406Z,19.38
2022-08-27T14:40:10.397Z,17.90
2022-08-27T14:42:38.738Z,17.05
2022-08-27T14:45:07.410Z,25.15
2022-08-27T14:47:36.394Z,29.45
2022-08-27T14:50:04.241Z,20.20
2022-08-27T14:52:30.858Z,24.33
2022-08-27T14:54:57.407Z,18.52
2022-08-27T14:57:25.311Z,28.05
2022-08-27T14:59:51.875Z,25.33
2022-08-27T15:02:21.044Z,20.05
2022-08-27T15:04:48.225Z,16.13
2022-08-27T15:07:14.895Z,27.40
2022-08-27T15:09:41.846Z,20.27
2022-08-27T15:12:15.389Z,21.33
2022-08-27T15:14:53.035Z,17.60
2022-08-27T15:17:35.249Z,20.30
2022-08-27T15:20:07.487Z,13.70
2022-08-27T15:22:36.197Z,23.40
2022-08-27T15:25:05.381Z,21.88
2022-08-27T15:27:38.685Z,17.65
2022-08-27T15:30:07.832Z,20.77
2022-08-27T15:32:37.132Z,16.20
2022-08-27T15:35:08.266Z,22.77
2022-08-27T15:37:35.457Z,26.23
2022-08-27T15:40:02.645Z,20.95
2022-08-27T15:42:29.427Z,22.85
2022-08-27T15:44:57.343Z,21.38
2022-08-27T15:47:25.124Z,24.25
2022-08-27T15:49:52.088Z,18.30
2022-08-27T15:52:22.149Z,23.35
2022-08-27T15:54:50.203Z,26.63
2022-08-27T15:57:18.518Z,22.92
2022-08-27T15:59:45.130Z,22.75
2022-08-27T16:02:18.086Z,22.60
2022-08-27T16:04:45.471Z,21.80
2022-08-27T16:07:16.574Z,20.23
2022-08-27T16:09:46.937Z,28.27
2022-08-27T16:12:27.508Z,25.70
2022-08-27T16:14:55.274Z,37.28
2022-08-27T16:17:22.895Z,29.13
2022-08-27T16:19:49.676Z,24.20
2022-08-27T16:22:16.409Z,19.58
2022-08-27T16:24:43.360Z,23.27
2022-08-27T16:27:10.603Z,18.50
2022-08-27T16:29:37.747Z,19.63
2022-08-27T16:32:05.112Z,18.13
2022-08-27T16:34:32.240Z,21.80
2022-08-27T16:36:59.998Z,22.88
2022-08-27T16:39:31.785Z,19.10
2022-08-27T16:42:00.707Z,17.33
2022-08-27T16:44:27.569Z,21.17
2022-08-27T16:46:54.119Z,18.38
2022-08-27T16:49:39.512Z,17.42
2022-08-27T16:54:35.055Z,18.42
2022-08-27T16:57:01.902Z,25.83
2022-08-27T16:59:28.495Z,17.25
2022-08-27T17:01:55.547Z,16.63
2022-08-27T17:04:29.624Z,23.27
2022-08-27T17:07:03.362Z,18.75
2022-08-27T17:09:30.269Z,18.67
2022-08-27T17:11:58.051Z,22.10
2022-08-27T17:14:25.132Z,15.63
2022-08-27T17:16:54.199Z,18.83
2022-08-27T17:19:26.189Z,19.92
2022-08-27T17:21:54.913Z,17.48
2022-08-27T17:24:21.920Z,20.55
2022-08-27T17:26:48.522Z,19.20
2022-08-27T17:29:15.197Z,37.20
2022-08-27T17:31:42.799Z,15.48
2022-08-27T17:34:16.843Z,21.42
2022-08-27T17:36:44.532Z,17.50
2022-08-27T17:39:12.118Z,18.08
2022-08-27T17:41:45.234Z,18.02
2022-08-27T17:44:20.802Z,22.20
2022-08-27T17:46:48.435Z,16.25
2022-08-27T17:49:15.219Z,18.05
2022-08-27T17:51:41.920Z,16.17
2022-08-27T17:54:23.944Z,18.45
2022-08-27T17:56:50.622Z,17.40
2022-08-27T17:59:17.211Z,15.85
2022-08-27T18:01:43.896Z,17.42
2022-08-27T18:04:10.550Z,19.75
2022-08-27T18:06:37.196Z,19.88
2022-08-27T18:09:04.562Z,14.95
2022-08-27T18:11:31.787Z,18.35
2022-08-27T18:14:04.553Z,18.75
2022-08-27T18:16:32.319Z,14.18
2022-08-27T18:18:58.944Z,24.30
2022-08-27T18:21:26.229Z,13.75
2022-08-27T18:23:54.189Z,20.75
2022-08-27T18:26:23.292Z,22.85
2022-08-27T18:28:50.219Z,17.00
2022-08-27T18:31:20.350Z,20.92
2022-08-27T18:33:46.999Z,23.08
2022-08-27T18:36:14.930Z,21.50
2022-08-27T18:38:41.585Z,21.20
2022-08-27T18:41:08.511Z,18.73
2022-08-27T18:43:35.720Z,19.67
2022-08-27T18:46:04.657Z,20.63
2022-08-27T18:48:31.519Z,25.50
2022-08-27T18:51:00.643Z,26.80
2022-08-27T18:53:31.786Z,22.27
2022-08-27T18:55:59.011Z,17.80
2022-08-27T18:58:26.667Z,16.88
2022-08-27T19:01:00.274Z,20.83
2022-08-27T19:03:31.328Z,23.27
2022-08-27T19:05:58.275Z,18.45
2022-08-27T19:08:28.279Z,21.60
2022-08-27T19:10:55.632Z,22.17
2022-08-27T19:13:22.899Z,19.83
2022-08-27T19:15:56.926Z,24.33
2022-08-27T19:18:26.995Z,20.60
2022-08-27T19:20:53.653Z,20.95
2022-08-27T19:23:22.265Z,20.30
2022-08-27T19:25:51.109Z,20.88
2022-08-27T19:28:22.674Z,20.50
2022-08-27T19:30:49.380Z,19.60
2022-08-27T19:33:16.026Z,28.05
2022-08-27T19:35:43.010Z,22.10
2022-08-27T19:38:13.835Z,22.83
2022-08-27T19:40:41.317Z,22.40
2022-08-27T19:43:08.732Z,23.88
2022-08-27T19:45:36.062Z,26.15
2022-08-27T19:48:07.366Z,24.65
2022-08-27T19:50:33.973Z,14.70
2022-08-27T19:53:00.590Z,18.85
2022-08-27T19:55:27.195Z,28.55
2022-08-27T19:57:53.877Z,23.45
2022-08-27T20:00:22.481Z,20.60
2022-08-27T20:02:50.729Z,15.07
2022-08-27T20:05:19.326Z,20.13
2022-08-27T20:07:51.206Z,10.13
2022-08-27T20:10:25.761Z,9.10
2022-08-27T20:12:58.237Z,10.80
2022-08-27T20:15:24.910Z,11.00
2022-08-27T20:17:52.782Z,8.27
2022-08-27T20:20:22.603Z,12.63
2022-08-27T20:22:49.677Z,9.23
2022-08-27T20:25:16.502Z,10.63
2022-08-27T20:27:43.158Z,12.98
2022-08-27T20:30:12.583Z,13.23
2022-08-27T20:32:39.593Z,17.42
2022-08-27T20:35:07.700Z,21.40
2022-08-27T20:37:38.950Z,20.77
2022-08-27T20:40:16.577Z,13.43
2022-08-27T20:42:44.382Z,19.50
2022-08-27T20:45:12.491Z,17.92
2022-08-27T20:47:40.650Z,21.27
2022-08-27T20:50:08.168Z,19.65
2022-08-27T20:52:36.432Z,17.95
2022-08-27T20:55:03.998Z,16.85
2022-08-27T20:57:30.698Z,18.52
2022-08-27T21:00:15.858Z,13.27
2022-08-27T21:02:42.516Z,14.23
2022-08-27T21:05:13.293Z,12.90
2022-08-27T21:07:40.045Z,14.02
2022-08-27T21:10:07.912Z,9.10
2022-08-27T21:12:35.394Z,15.82
2022-08-27T21:15:04.044Z,19.92
2022-08-27T21:17:30.634Z,15.70
2022-08-27T21:19:57.590Z,12.35
2022-08-27T21:22:25.039Z,13.15
2022-08-27T21:24:52.136Z,10.70
2022-08-27T21:27:21.090Z,12.65
2022-08-27T21:29:48.438Z,12.90
2022-08-27T21:32:15.078Z,12.15
2022-08-27T21:34:42.153Z,12.50
2022-08-27T21:37:11.204Z,7.85
2022-08-27T21:39:39.386Z,7.72
2022-08-27T21:42:06.630Z,7.72
2022-08-27T21:44:34.313Z,9.02
2022-08-27T21:47:01.819Z,7.88
2022-08-27T21:49:28.750Z,9.25
2022-08-27T21:51:55.324Z,8.38
2022-08-27T21:54:23.475Z,6.68
2022-08-27T21:56:53.106Z,8.30
2022-08-27T21:59:20.089Z,7.95
2022-08-27T22:01:46.722Z,8.55
2022-08-27T22:04:13.441Z,12.70
2022-08-27T22:06:40.025Z,8.50
2022-08-27T22:09:06.605Z,12.10
2022-08-27T22:11:33.179Z,12.35
2022-08-27T22:13:59.787Z,11.25
2022-08-27T22:16:26.439Z,9.43
2022-08-27T22:18:55.076Z,11.85
2022-08-27T22:21:22.978Z,13.55
2022-08-27T22:23:51.535Z,14.02
2022-08-27T22:26:19.732Z,12.48
2022-08-27T22:28:46.946Z,11.95
2022-08-27T22:31:14.012Z,14.68
2022-08-27T22:33:40.696Z,14.13
2022-08-27T22:36:07.701Z,15.07
2022-08-27T22:38:34.331Z,11.60
2022-08-27T22:41:01.340Z,15.35
2022-08-27T22:43:28.134Z,16.20
2022-08-27T22:45:54.704Z,13.90
2022-08-27T22:48:21.341Z,13.57
2022-08-27T22:50:47.974Z,12.55
2022-08-27T22:53:14.793Z,18.80
2022-08-27T22:55:41.382Z,13.80
2022-08-27T22:58:08.085Z,12.30
2022-08-27T23:00:37.432Z,10.35
2022-08-27T23:03:06.853Z,14.00
2022-08-27T23:05:41.783Z,11.45
2022-08-27T23:08:11.509Z,10.02
2022-08-27T23:10:38.792Z,15.50
2022-08-27T23:13:06.967Z,13.15
2022-08-27T23:15:34.508Z,11.48
2022-08-27T23:18:01.679Z,14.30
2022-08-27T23:20:29.405Z,13.40
2022-08-27T23:22:56.361Z,12.45
2022-08-27T23:25:43.752Z,11.45
2022-08-27T23:28:14.768Z,9.68
2022-08-27T23:30:43.677Z,11.57
2022-08-27T23:33:10.482Z,10.38
2022-08-27T23:35:37.482Z,12.50
2022-08-27T23:38:05.032Z,15.32
2022-08-27T23:40:31.787Z,13.57
2022-08-27T23:42:58.687Z,11.57
2022-08-27T23:45:26.768Z,12.63
2022-08-27T23:47:53.833Z,14.45
2022-08-27T23:50:24.684Z,15.07
2022-08-27T23:53:01.772Z,11.48
2022-08-27T23:55:28.830Z,13.38
2022-08-27T23:57:57.729Z,9.20
